createdAt,value
2018-05-02T00:00:53.140Z,7.6
2018-05-02T00:01:52.349Z,7.6
2018-05-02T00:02:51.334Z,7.6
2018-05-02T00:03:50.554Z,7.6
2018-05-02T00:04:49.375Z,7.5
2018-05-02T00:05:48.685Z,7.4
2018-05-02T00:06:47.887Z,7.4
2018-05-02T00:07:46.882Z,7.4
2018-05-02T00:08:46.312Z,7.4
2018-05-02T00:09:45.199Z,7.3
2018-05-02T00:10:44.415Z,7.3
2018-05-02T00:11:43.335Z,7.4
2018-05-02T00:12:42.760Z,7.4
2018-05-02T00:13:41.699Z,7.4
2018-05-02T00:14:40.915Z,7.3
2018-05-02T00:15:40.018Z,7.3
2018-05-02T00:16:39.340Z,7.2
2018-05-02T00:17:38.147Z,7.2
2018-05-02T00:18:37.463Z,7.1
2018-05-02T00:19:36.682Z,7.1
2018-05-02T00:20:35.600Z,7.1
2018-05-02T00:21:34.701Z,7
2018-05-02T00:22:33.906Z,7
2018-05-02T00:23:33.233Z,7
2018-05-02T00:24:32.168Z,7
2018-05-02T00:25:31.486Z,6.9
2018-05-02T00:27:29.690Z,6.9
2018-05-02T00:28:28.424Z,6.9
2018-05-02T00:29:27.942Z,6.8
2018-05-02T00:30:26.857Z,6.8
2018-05-02T00:31:26.190Z,6.8
2018-05-02T00:32:25.107Z,6.8
2018-05-02T00:33:24.534Z,6.7
2018-05-02T00:34:23.635Z,6.7
2018-05-02T00:35:22.339Z,6.7
2018-05-02T00:36:21.758Z,6.7
2018-05-02T00:37:20.570Z,6.6
2018-05-02T00:38:19.672Z,6.6
2018-05-02T00:39:18.882Z,6.6
2018-05-02T00:40:18.308Z,6.6
2018-05-02T00:41:17.236Z,6.6
2018-05-02T00:41:47.652Z,6.6
2018-05-02T00:42:18.165Z,6.5
2018-05-02T00:43:15.575Z,6.5
2018-05-02T00:44:14.300Z,6.6
2018-05-02T00:48:11.279Z,6.4
2018-05-02T00:49:09.996Z,6.4
2018-05-02T00:52:07.473Z,6.4
2018-05-02T00:53:06.799Z,6.3
2018-05-02T00:54:05.617Z,6.3
2018-05-02T00:55:04.836Z,6.3
2018-05-02T00:56:03.938Z,6.3
2018-05-02T00:58:01.923Z,6.3
2018-05-02T00:59:01.426Z,6.3
2018-05-02T01:00:00.642Z,6.3
2018-05-02T01:00:59.234Z,6.3
2018-05-02T01:01:58.626Z,6.3
2018-05-02T01:02:57.839Z,6.3
2018-05-02T01:04:56.038Z,6.3
2018-05-02T01:08:52.612Z,6.2
2018-05-02T01:09:51.325Z,6.2
2018-05-02T01:11:49.824Z,6.1
2018-05-02T01:12:49.149Z,6.1
2018-05-02T01:13:47.867Z,6.1
2018-05-02T01:14:47.294Z,6.1
2018-05-02T01:17:44.334Z,6.1
2018-05-02T01:18:43.435Z,6.1
2018-05-02T01:19:42.905Z,6.1
2018-05-02T01:20:41.741Z,6.1
2018-05-02T01:21:41.081Z,6.1
2018-05-02T01:22:11.488Z,6.1
2018-05-02T01:22:41.902Z,6.1
2018-05-02T01:23:12.636Z,6.1
2018-05-02T01:24:38.126Z,6.1
2018-05-02T01:25:37.221Z,6.1
2018-05-02T01:26:36.552Z,6.1
2018-05-02T01:27:35.299Z,6
2018-05-02T01:28:34.728Z,6
2018-05-02T01:30:32.923Z,5.9
2018-05-02T01:31:32.029Z,5.9
2018-05-02T01:32:30.843Z,5.9
2018-05-02T01:33:01.253Z,5.9
2018-05-02T01:33:31.675Z,5.8
2018-05-02T01:34:02.223Z,5.8
2018-05-02T01:35:28.115Z,5.8
2018-05-02T01:36:27.434Z,5.8
2018-05-02T01:37:26.548Z,5.8
2018-05-02T01:38:25.377Z,5.7
2018-05-02T01:39:24.698Z,5.7
2018-05-02T01:41:22.808Z,5.7
2018-05-02T01:42:22.025Z,5.7
2018-05-02T01:43:21.238Z,5.7
2018-05-02T01:45:19.536Z,5.6
2018-05-02T01:46:18.453Z,5.6
2018-05-02T01:47:17.660Z,5.6
2018-05-02T01:50:14.849Z,5.6
2018-05-02T01:51:14.057Z,5.5
2018-05-02T01:52:12.872Z,5.5
2018-05-02T01:53:12.194Z,5.5
2018-05-02T01:54:11.006Z,5.5
2018-05-02T01:55:10.437Z,5.5
2018-05-02T01:56:09.239Z,5.5
2018-05-02T01:57:08.662Z,5.5
2018-05-02T01:58:07.874Z,5.5
2018-05-02T01:59:06.691Z,5.4
2018-05-02T02:00:06.019Z,5.4
2018-05-02T02:01:04.743Z,5.4
2018-05-02T02:03:02.831Z,5.4
2018-05-02T02:03:33.353Z,5.4
2018-05-02T02:05:01.148Z,5.4
2018-05-02T02:06:00.590Z,5.4
2018-05-02T02:06:59.399Z,5.3
2018-05-02T02:07:58.722Z,5.3
2018-05-02T02:08:57.637Z,5.3
2018-05-02T02:09:56.953Z,5.3
2018-05-02T02:10:55.550Z,5.3
2018-05-02T02:11:54.651Z,5.3
2018-05-02T02:12:53.964Z,5.3
2018-05-02T02:13:52.959Z,5.3
2018-05-02T02:14:52.278Z,5.3
2018-05-02T02:15:51.514Z,5.3
2018-05-02T02:16:50.232Z,5.3
2018-05-02T02:17:49.586Z,5.3
2018-05-02T02:18:48.519Z,5.3
2018-05-02T02:19:47.647Z,5.3
2018-05-02T02:21:45.757Z,5.3
2018-05-02T02:22:44.976Z,5.3
2018-05-02T02:23:43.924Z,5.3
2018-05-02T02:24:43.049Z,5.3
2018-05-02T02:26:41.277Z,5.3
2018-05-02T02:27:40.615Z,5.3
2018-05-02T02:28:39.337Z,5.3
2018-05-02T02:29:38.566Z,5.3
2018-05-02T02:30:37.508Z,5.3
2018-05-02T02:31:36.864Z,5.2
2018-05-02T02:32:35.593Z,5.2
2018-05-02T02:34:34.328Z,5.2
2018-05-02T02:36:32.163Z,5.2
2018-05-02T02:37:31.391Z,5.2
2018-05-02T02:38:30.410Z,5.2
2018-05-02T02:39:29.750Z,5.2
2018-05-02T02:40:28.720Z,5.2
2018-05-02T02:41:27.662Z,5.2
2018-05-02T02:42:26.606Z,5.2
2018-05-02T02:43:25.966Z,5.2
2018-05-02T02:44:24.838Z,5.2
2018-05-02T02:45:24.158Z,5.2
2018-05-02T02:46:23.102Z,5.2
2018-05-02T02:47:22.439Z,5.2
2018-05-02T02:48:21.233Z,5.2
2018-05-02T02:49:20.695Z,5.2
2018-05-02T02:50:19.629Z,5.2
2018-05-02T02:51:18.589Z,5.2
2018-05-02T02:53:16.695Z,5.3
2018-05-02T02:54:15.917Z,5.3
2018-05-02T02:55:15.317Z,5.3
2018-05-02T02:56:14.074Z,5.4
2018-05-02T02:57:12.970Z,5.4
2018-05-02T02:57:43.631Z,5.4
2018-05-02T03:00:10.434Z,5.5
2018-05-02T03:02:08.669Z,5.6
2018-05-02T03:03:07.614Z,5.6
2018-05-02T03:04:06.957Z,5.6
2018-05-02T03:05:05.900Z,5.6
2018-05-02T03:06:04.862Z,5.7
2018-05-02T03:07:04.229Z,5.7
2018-05-02T03:07:34.547Z,5.7
2018-05-02T03:08:05.195Z,5.7
2018-05-02T03:08:35.852Z,5.7
2018-05-02T03:09:06.299Z,5.7
2018-05-02T03:09:36.962Z,5.7
2018-05-02T03:11:00.346Z,5.8
2018-05-02T03:12:58.348Z,5.9
2018-05-02T03:13:57.583Z,5.9
2018-05-02T03:14:56.808Z,5.9
2018-05-02T03:15:55.647Z,6
2018-05-02T03:16:54.991Z,6
2018-05-02T03:17:53.928Z,6
2018-05-02T03:18:53.264Z,6
2018-05-02T03:19:52.222Z,6
2018-05-02T03:20:51.231Z,6.1
2018-05-02T03:21:50.465Z,6.1
2018-05-02T03:22:49.295Z,6.1
2018-05-02T03:23:48.623Z,6.1
2018-05-02T03:24:47.871Z,6.1
2018-05-02T03:25:46.596Z,6.1
2018-05-02T03:27:44.710Z,6.1
2018-05-02T03:28:43.941Z,6.2
2018-05-02T03:29:43.281Z,6.2
2018-05-02T03:30:42.011Z,6.2
2018-05-02T03:31:41.352Z,6.2
2018-05-02T03:32:40.321Z,6.2
2018-05-02T03:33:39.543Z,6.2
2018-05-02T03:34:38.270Z,6.2
2018-05-02T03:35:37.495Z,6.2
2018-05-02T03:36:36.934Z,6.3
2018-05-02T03:38:35.146Z,6.3
2018-05-02T03:39:34.160Z,6.3
2018-05-02T03:40:32.776Z,6.3
2018-05-02T03:41:32.106Z,6.3
2018-05-02T03:42:31.542Z,6.3
2018-05-02T03:43:30.268Z,6.3
2018-05-02T03:44:29.604Z,6.3
2018-05-02T03:45:28.721Z,6.3
2018-05-02T03:46:27.657Z,6.3
2018-05-02T03:46:58.092Z,6.3
2018-05-02T03:48:26.110Z,6.3
2018-05-02T03:48:56.752Z,6.3
2018-05-02T03:51:23.036Z,6.2
2018-05-02T03:52:22.262Z,6.1
2018-05-02T03:55:19.649Z,6
2018-05-02T03:56:18.375Z,6
2018-05-02T03:57:17.605Z,5.9
2018-05-02T03:58:16.940Z,5.9
2018-05-02T03:58:47.586Z,5.9
2018-05-02T03:59:18.125Z,5.9
2018-05-02T03:59:48.671Z,5.9
2018-05-02T04:01:14.285Z,5.9
2018-05-02T04:02:13.225Z,5.9
2018-05-02T04:03:12.176Z,5.9
2018-05-02T04:04:11.395Z,5.9
2018-05-02T04:05:10.617Z,5.9
2018-05-02T04:06:09.349Z,5.9
2018-05-02T04:07:08.679Z,5.8
2018-05-02T04:08:07.914Z,5.8
2018-05-02T04:09:06.846Z,5.8
2018-05-02T04:11:04.954Z,5.8
2018-05-02T04:12:04.178Z,5.8
2018-05-02T04:13:03.403Z,5.8
2018-05-02T04:14:02.343Z,5.8
2018-05-02T04:15:01.389Z,5.8
2018-05-02T04:16:59.607Z,5.8
2018-05-02T04:17:58.950Z,5.8
2018-05-02T04:18:57.785Z,5.8
2018-05-02T04:19:57.007Z,5.8
2018-05-02T04:20:55.947Z,5.8
2018-05-02T04:21:55.168Z,5.8
2018-05-02T04:22:54.118Z,5.8
2018-05-02T04:23:53.315Z,5.8
2018-05-02T04:26:50.202Z,5.9
2018-05-02T04:27:49.527Z,5.9
2018-05-02T04:28:48.980Z,5.9
2018-05-02T04:29:47.814Z,5.9
2018-05-02T04:30:47.044Z,5.9
2018-05-02T04:31:45.658Z,5.9
2018-05-02T04:32:44.990Z,5.9
2018-05-02T04:34:43.062Z,6
2018-05-02T04:35:42.288Z,6
2018-05-02T04:36:41.620Z,6
2018-05-02T04:37:40.331Z,6
2018-05-02T04:38:39.560Z,6
2018-05-02T04:39:38.788Z,6
2018-05-02T04:41:37.006Z,6.1
2018-05-02T04:42:36.019Z,6.1
2018-05-02T04:44:34.136Z,6.1
2018-05-02T04:45:33.084Z,6.1
2018-05-02T04:46:32.304Z,6.1
2018-05-02T04:49:29.801Z,6.2
2018-05-02T04:50:28.745Z,6.2
2018-05-02T04:51:28.079Z,6.2
2018-05-02T04:52:26.692Z,6.1
2018-05-02T04:53:26.027Z,6.2
2018-05-02T04:54:25.154Z,6.2
2018-05-02T04:56:23.301Z,6.2
2018-05-02T04:57:22.132Z,6.2
2018-05-02T04:58:21.585Z,6.3
2018-05-02T04:59:20.527Z,6.3
2018-05-02T05:00:19.759Z,6.3
2018-05-02T05:01:18.588Z,6.2
2018-05-02T05:02:17.820Z,6.3
2018-05-02T05:04:15.921Z,6.3
2018-05-02T05:05:15.255Z,6.3
2018-05-02T05:07:13.261Z,6.4
2018-05-02T05:10:10.755Z,6.4
2018-05-02T05:11:09.980Z,6.4
2018-05-02T05:13:07.582Z,6.5
2018-05-02T05:16:05.304Z,6.6
2018-05-02T05:17:04.136Z,6.6
2018-05-02T05:20:01.749Z,6.6
2018-05-02T05:21:00.584Z,6.7
2018-05-02T05:21:59.909Z,6.7
2018-05-02T05:22:59.025Z,6.7
2018-05-02T05:23:29.705Z,6.7
2018-05-02T05:24:00.457Z,6.7
2018-05-02T05:24:30.890Z,6.7
2018-05-02T05:25:56.503Z,6.7
2018-05-02T05:26:55.223Z,6.8
2018-05-02T05:27:54.440Z,6.8
2018-05-02T05:28:53.452Z,6.8
2018-05-02T05:29:52.783Z,6.8
2018-05-02T05:30:51.905Z,6.8
2018-05-02T05:31:50.625Z,6.8
2018-05-02T05:32:50.065Z,6.8
2018-05-02T05:33:20.227Z,6.8
2018-05-02T05:33:50.873Z,6.9
2018-05-02T05:34:21.517Z,6.9
2018-05-02T05:35:47.419Z,7
2018-05-02T05:37:46.379Z,7
2018-05-02T05:40:42.754Z,7.1
2018-05-02T05:41:41.977Z,7.1
2018-05-02T05:42:40.878Z,7.2
2018-05-02T05:43:40.623Z,7.2
2018-05-02T05:44:39.158Z,7.2
2018-05-02T05:45:38.388Z,7.2
2018-05-02T05:46:37.317Z,7.3
2018-05-02T05:48:35.531Z,7.3
2018-05-02T05:50:33.748Z,7.3
2018-05-02T05:51:32.976Z,7.3
2018-05-02T05:52:31.913Z,7.4
2018-05-02T05:53:31.136Z,7.4
2018-05-02T05:54:30.945Z,7.5
2018-05-02T05:55:29.554Z,7.5
2018-05-02T05:56:28.673Z,7.5
2018-05-02T05:57:27.392Z,7.5
2018-05-02T05:59:26.007Z,7.6
2018-05-02T06:02:23.114Z,7.7
2018-05-02T06:03:22.224Z,7.7
2018-05-02T06:04:21.563Z,7.7
2018-05-02T06:04:52.097Z,7.7
2018-05-02T06:06:19.715Z,7.8
2018-05-02T06:07:18.942Z,7.8
2018-05-02T06:08:18.066Z,7.8
2018-05-02T06:09:16.788Z,7.9
2018-05-02T06:10:16.247Z,7.9
2018-05-02T06:11:15.480Z,8
2018-05-02T06:12:14.311Z,8
2018-05-02T06:13:13.248Z,8.1
2018-05-02T06:14:12.693Z,8.1
2018-05-02T06:15:11.637Z,8.1
2018-05-02T06:15:42.280Z,8.1
2018-05-02T06:16:12.536Z,8.1
2018-05-02T06:16:43.184Z,8.1
2018-05-02T06:17:13.453Z,8.2
2018-05-02T06:18:09.061Z,8.2
2018-05-02T06:19:08.004Z,8.2
2018-05-02T06:20:07.450Z,8.3
2018-05-02T06:23:04.554Z,8.4
2018-05-02T06:25:02.779Z,8.5
2018-05-02T06:26:01.799Z,8.5
2018-05-02T06:27:00.972Z,8.5
2018-05-02T06:28:00.301Z,8.5
2018-05-02T06:28:59.728Z,8.6
2018-05-02T06:30:57.844Z,8.6
2018-05-02T06:31:56.773Z,8.6
2018-05-02T06:34:53.975Z,8.7
2018-05-02T06:35:53.319Z,8.7
2018-05-02T06:36:52.652Z,8.8
2018-05-02T06:37:51.786Z,8.8
2018-05-02T06:38:50.645Z,8.8
2018-05-02T06:39:49.882Z,8.9
2018-05-02T06:41:48.094Z,9
2018-05-02T06:42:46.930Z,9
2018-05-02T06:43:46.052Z,9.1
2018-05-02T06:44:45.380Z,9.1
2018-05-02T06:45:44.611Z,9.1
2018-05-02T06:46:43.552Z,9.2
2018-05-02T06:47:42.895Z,9.2
2018-05-02T06:49:41.237Z,9.2
2018-05-02T06:50:40.071Z,9.2
2018-05-02T06:52:38.185Z,9.3
2018-05-02T06:53:37.297Z,9.3
2018-05-02T06:54:36.807Z,9.4
2018-05-02T06:55:35.775Z,9.4
2018-05-02T06:56:35.121Z,9.4
2018-05-02T06:57:33.967Z,9.5
2018-05-02T06:58:33.313Z,9.5
2018-05-02T07:00:31.532Z,9.6
2018-05-02T07:01:30.767Z,9.6
2018-05-02T07:02:29.995Z,9.7
2018-05-02T07:03:28.716Z,9.7
2018-05-02T07:04:27.948Z,9.7
2018-05-02T07:06:26.744Z,9.8
2018-05-02T07:07:25.575Z,9.8
2018-05-02T07:09:23.689Z,9.9
2018-05-02T07:11:22.416Z,10
2018-05-02T07:12:21.261Z,10
2018-05-02T07:13:20.710Z,10
2018-05-02T07:14:19.327Z,10
2018-05-02T07:15:18.777Z,10
2018-05-02T07:17:17.021Z,10.1
2018-05-02T07:18:16.365Z,10.1
2018-05-02T07:19:15.590Z,10.1
2018-05-02T07:20:14.526Z,10.1
2018-05-02T07:21:13.865Z,10.1
2018-05-02T07:23:11.976Z,10.1
2018-05-02T07:24:10.919Z,10.1
2018-05-02T07:25:10.143Z,10.2
2018-05-02T07:26:09.476Z,10.2
2018-05-02T07:27:08.808Z,10.2
2018-05-02T07:28:07.651Z,10.1
2018-05-02T07:29:06.872Z,10.1
2018-05-02T07:30:05.988Z,10.2
2018-05-02T07:31:05.110Z,10.2
2018-05-02T07:32:04.443Z,10.2
2018-05-02T07:33:03.649Z,10.2
2018-05-02T07:34:02.547Z,10.2
2018-05-02T07:36:01.162Z,10.3
2018-05-02T07:37:00.274Z,10.3
2018-05-02T07:37:59.500Z,10.3
2018-05-02T07:39:57.719Z,10.3
2018-05-02T07:41:55.823Z,10.4
2018-05-02T07:43:54.493Z,10.4
2018-05-02T07:44:53.442Z,10.4
2018-05-02T07:45:52.839Z,10.4
2018-05-02T07:47:50.944Z,10.5
2018-05-02T07:48:50.164Z,10.5
2018-05-02T07:49:49.493Z,10.5
2018-05-02T07:50:48.321Z,10.5
2018-05-02T07:51:47.443Z,10.5
2018-05-02T07:52:46.802Z,10.5
2018-05-02T07:53:45.922Z,10.5
2018-05-02T07:54:45.288Z,10.5
2018-05-02T07:55:15.944Z,10.5
2018-05-02T07:55:46.157Z,10.5
2018-05-02T07:56:43.675Z,10.6
2018-05-02T07:57:42.710Z,10.6
2018-05-02T07:59:40.815Z,10.7
2018-05-02T08:00:40.045Z,10.7
2018-05-02T08:01:39.381Z,10.7
2018-05-02T08:04:36.988Z,10.7
2018-05-02T08:05:35.904Z,10.7
2018-05-02T08:07:34.114Z,10.7
2018-05-02T08:08:33.340Z,10.7
2018-05-02T08:09:32.579Z,10.7
2018-05-02T08:10:31.912Z,10.7
2018-05-02T08:11:30.810Z,10.8
2018-05-02T08:12:30.146Z,10.8
2018-05-02T08:13:29.377Z,10.8
2018-05-02T08:14:28.821Z,10.8
2018-05-02T08:16:27.402Z,10.8
2018-05-02T08:17:25.899Z,10.8
2018-05-02T08:19:24.637Z,10.9
2018-05-02T08:20:23.868Z,10.9
2018-05-02T08:21:22.583Z,10.8
2018-05-02T08:22:21.814Z,10.9
2018-05-02T08:23:21.159Z,10.8
2018-05-02T08:26:18.670Z,10.9
2018-05-02T08:28:16.888Z,11
2018-05-02T08:29:16.228Z,11
2018-05-02T08:29:46.886Z,11
2018-05-02T08:30:17.429Z,11
2018-05-02T08:31:14.862Z,11
2018-05-02T08:32:13.592Z,11
2018-05-02T08:33:13.004Z,11
2018-05-02T08:34:12.021Z,11
2018-05-02T08:35:11.352Z,11
2018-05-02T08:37:09.730Z,11
2018-05-02T08:38:09.059Z,11
2018-05-02T08:39:08.176Z,10.9
2018-05-02T08:40:07.300Z,10.9
2018-05-02T08:41:06.252Z,10.9
2018-05-02T08:42:05.265Z,10.9
2018-05-02T08:43:04.781Z,10.9
2018-05-02T08:44:04.230Z,10.9
2018-05-02T08:45:02.987Z,10.9
2018-05-02T08:46:02.297Z,10.9
2018-05-02T08:47:01.747Z,10.9
2018-05-02T08:48:00.781Z,10.9
2018-05-02T08:49:59.297Z,10.9
2018-05-02T08:50:58.274Z,10.9
2018-05-02T08:51:57.214Z,10.9
2018-05-02T08:52:56.433Z,10.9
2018-05-02T08:53:55.659Z,10.9
2018-05-02T08:55:54.431Z,10.9
2018-05-02T08:56:53.448Z,10.8
2018-05-02T08:57:52.287Z,10.9
2018-05-02T08:58:51.636Z,10.8
2018-05-02T09:00:49.849Z,10.8
2018-05-02T09:01:49.354Z,10.9
2018-05-02T09:03:48.099Z,10.9
2018-05-02T09:04:46.623Z,10.9
2018-05-02T09:05:45.962Z,10.9
2018-05-02T09:06:45.304Z,10.9
2018-05-02T09:07:44.528Z,10.9
2018-05-02T09:08:43.459Z,10.9
2018-05-02T09:10:41.793Z,10.9
2018-05-02T09:11:41.017Z,11
2018-05-02T09:14:38.530Z,10.9
2018-05-02T09:15:37.921Z,11
2018-05-02T09:16:37.267Z,11
2018-05-02T09:17:36.100Z,11
2018-05-02T09:18:35.330Z,11
2018-05-02T09:19:34.557Z,11
2018-05-02T09:20:33.780Z,11.1
2018-05-02T09:21:33.216Z,11
2018-05-02T09:22:31.834Z,11.1
2018-05-02T09:23:31.158Z,11.1
2018-05-02T09:24:30.618Z,11.1
2018-05-02T09:25:29.457Z,11.1
2018-05-02T09:26:28.794Z,11.1
2018-05-02T09:27:28.134Z,11.1
2018-05-02T09:28:27.469Z,11.1
2018-05-02T09:29:26.195Z,11
2018-05-02T09:29:56.642Z,11
2018-05-02T09:31:24.671Z,11
2018-05-02T09:32:23.905Z,11
2018-05-02T09:33:23.257Z,11.1
2018-05-02T09:34:22.087Z,11.1
2018-05-02T09:35:21.526Z,11.1
2018-05-02T09:36:20.968Z,11.1
2018-05-02T09:37:19.699Z,11.1
2018-05-02T09:39:18.712Z,11.2
2018-05-02T09:39:48.940Z,11.2
2018-05-02T09:40:19.191Z,11.2
2018-05-02T09:40:49.734Z,11.2
2018-05-02T09:42:16.212Z,11.2
2018-05-02T09:43:15.152Z,11.3
2018-05-02T09:44:14.903Z,11.3
2018-05-02T09:45:13.233Z,11.3
2018-05-02T09:46:12.675Z,11.3
2018-05-02T09:47:12.005Z,11.2
2018-05-02T09:48:10.727Z,11.3
2018-05-02T09:49:10.449Z,11.3
2018-05-02T09:50:09.276Z,11.3
2018-05-02T09:52:07.849Z,11.3
2018-05-02T09:53:07.162Z,11.3
2018-05-02T09:54:05.884Z,11.4
2018-05-02T09:55:05.332Z,11.3
2018-05-02T09:56:04.673Z,11.4
2018-05-02T09:57:03.895Z,11.4
2018-05-02T09:59:02.122Z,11.4
2018-05-02T10:00:01.454Z,11.4
2018-05-02T10:01:00.792Z,11.4
2018-05-02T10:02:59.122Z,11.4
2018-05-02T10:03:58.237Z,11.4
2018-05-02T10:04:57.363Z,11.4
2018-05-02T10:05:56.484Z,11.4
2018-05-02T10:06:55.705Z,11.3
2018-05-02T10:07:55.051Z,11.3
2018-05-02T10:08:54.283Z,11.2
2018-05-02T10:09:53.115Z,11.2
2018-05-02T10:10:52.244Z,11.2
2018-05-02T10:16:47.799Z,11.1
2018-05-02T10:18:46.023Z,11.1
2018-05-02T10:19:45.245Z,11.1
2018-05-02T10:20:44.472Z,11.1
2018-05-02T10:21:43.810Z,11.2
2018-05-02T10:23:41.821Z,11.2
2018-05-02T10:24:41.151Z,11.2
2018-05-02T10:25:40.379Z,11.2
2018-05-02T10:26:39.723Z,11.3
2018-05-02T10:27:38.604Z,11.3
2018-05-02T10:28:38.067Z,11.3
2018-05-02T10:29:37.398Z,11.3
2018-05-02T10:31:35.613Z,11.4
2018-05-02T10:32:34.445Z,11.4
2018-05-02T10:33:33.780Z,11.4
2018-05-02T10:34:33.295Z,11.5
2018-05-02T10:36:31.582Z,11.6
2018-05-02T10:38:30.192Z,11.6
2018-05-02T10:39:29.126Z,11.6
2018-05-02T10:40:28.364Z,11.7
2018-05-02T10:41:27.699Z,11.7
2018-05-02T10:43:25.911Z,11.8
2018-05-02T10:44:25.128Z,11.8
2018-05-02T10:46:23.636Z,11.8
2018-05-02T10:47:22.583Z,11.8
2018-05-02T10:49:21.306Z,11.8
2018-05-02T10:50:20.667Z,11.8
2018-05-02T10:51:19.698Z,11.9
2018-05-02T10:52:18.812Z,11.8
2018-05-02T10:54:16.921Z,11.9
2018-05-02T10:55:16.363Z,11.9
2018-05-02T10:56:15.305Z,12
2018-05-02T10:57:14.519Z,12
2018-05-02T10:58:13.736Z,12
2018-05-02T10:59:13.067Z,12
2018-05-02T11:00:12.187Z,12
2018-05-02T11:02:10.804Z,12.1
2018-05-02T11:03:10.000Z,12.1
2018-05-02T11:05:08.215Z,12.2
2018-05-02T11:07:06.509Z,12.2
2018-05-02T11:07:37.166Z,12.2
2018-05-02T11:08:07.820Z,12.2
2018-05-02T11:09:05.260Z,12.3
2018-05-02T11:10:04.208Z,12.3
2018-05-02T11:11:03.658Z,12.4
2018-05-02T11:12:02.775Z,12.4
2018-05-02T11:13:02.003Z,12.5
2018-05-02T11:14:01.011Z,12.6
2018-05-02T11:15:00.345Z,12.7
2018-05-02T11:16:58.962Z,12.8
2018-05-02T11:17:29.293Z,12.8
2018-05-02T11:18:57.332Z,13
2018-05-02T11:19:56.669Z,13.2
2018-05-02T11:20:55.614Z,13.2
2018-05-02T11:21:55.133Z,13.2
2018-05-02T11:22:54.084Z,13.3
2018-05-02T11:23:53.317Z,13.3
2018-05-02T11:24:52.652Z,13.3
2018-05-02T11:25:52.094Z,13.3
2018-05-02T11:26:50.930Z,13.3
2018-05-02T11:27:50.053Z,13.3
2018-05-02T11:28:49.385Z,13.2
2018-05-02T11:30:48.208Z,13.4
2018-05-02T11:31:46.934Z,13.5
2018-05-02T11:32:46.372Z,13.6
2018-05-02T11:34:44.820Z,13.9
2018-05-02T11:35:44.135Z,14.1
2018-05-02T11:36:43.466Z,14.2
2018-05-02T11:37:42.706Z,14.3
2018-05-02T11:38:41.925Z,14.4
2018-05-02T11:40:39.975Z,14.3
2018-05-02T11:41:39.270Z,14.3
2018-05-02T11:42:39.012Z,14.2
2018-05-02T11:43:38.241Z,14.2
2018-05-02T11:44:37.463Z,14.3
2018-05-02T11:45:36.690Z,14.4
2018-05-02T11:46:36.024Z,14.5
2018-05-02T11:51:31.791Z,14.9
2018-05-02T11:52:31.531Z,14.9
2018-05-02T11:53:30.757Z,15
2018-05-02T11:54:30.089Z,15.1
2018-05-02T11:56:28.131Z,15.3
2018-05-02T11:57:28.960Z,15.5
2018-05-02T11:59:26.060Z,15.7
2018-05-02T12:00:25.497Z,15.9
2018-05-02T12:00:56.150Z,15.9
2018-05-02T12:01:26.293Z,15.9
2018-05-02T12:01:56.835Z,15.9
2018-05-02T12:03:23.350Z,16.1
2018-05-02T12:05:21.632Z,16.3
2018-05-02T12:06:20.862Z,16.3
2018-05-02T12:07:20.366Z,16.3
2018-05-02T12:08:19.580Z,16.3
2018-05-02T12:09:18.914Z,16.4
2018-05-02T12:10:18.264Z,16.5
2018-05-02T12:12:16.873Z,16.8
2018-05-02T12:13:16.226Z,16.8
2018-05-02T12:14:15.340Z,16.8
2018-05-02T12:16:13.948Z,16.4
2018-05-02T12:17:13.181Z,16.4
2018-05-02T12:18:12.697Z,16.5
2018-05-02T12:19:12.140Z,16.7
2018-05-02T12:23:08.934Z,16.8
2018-05-02T12:24:08.674Z,16.7
2018-05-02T12:25:07.894Z,16.7
2018-05-02T12:26:07.120Z,16.7
2018-05-02T12:27:06.751Z,16.7
2018-05-02T12:28:05.774Z,16.8
2018-05-02T12:29:04.898Z,16.7
2018-05-02T12:30:04.127Z,16.6
2018-05-02T12:31:03.353Z,16.6
2018-05-02T12:32:03.090Z,16.5
2018-05-02T12:33:02.313Z,16.6
2018-05-02T12:35:01.027Z,16.6
2018-05-02T12:36:00.368Z,16.5
2018-05-02T12:36:59.699Z,16.6
2018-05-02T12:37:59.136Z,16.7
2018-05-02T12:38:58.569Z,16.8
2018-05-02T12:39:57.688Z,16.9
2018-05-02T12:40:57.084Z,17
2018-05-02T12:41:56.308Z,17.1
2018-05-02T12:42:55.642Z,17.2
2018-05-02T12:43:55.050Z,17.1
2018-05-02T12:45:53.382Z,17.3
2018-05-02T12:46:52.829Z,17.5
2018-05-02T12:47:52.057Z,17.5
2018-05-02T12:48:51.500Z,17.7
2018-05-02T12:50:50.222Z,17.5
2018-05-02T12:51:49.352Z,17.7
2018-05-02T12:53:48.069Z,17.8
2018-05-02T12:54:47.815Z,17.9
2018-05-02T12:55:47.144Z,17.9
2018-05-02T12:56:46.081Z,17.9
2018-05-02T12:57:45.423Z,17.9
2018-05-02T12:59:44.046Z,18.2
2018-05-02T13:00:43.486Z,18.2
2018-05-02T13:01:42.832Z,18.3
2018-05-02T13:02:42.064Z,18.4
2018-05-02T13:03:41.903Z,18.4
2018-05-02T13:05:40.402Z,18.5
2018-05-02T13:06:39.846Z,18.5
2018-05-02T13:07:39.069Z,18.6
2018-05-02T13:08:38.511Z,18.5
2018-05-02T13:09:37.847Z,17.7
2018-05-02T13:10:37.190Z,17.8
2018-05-02T13:11:36.624Z,17.9
2018-05-02T13:12:35.636Z,17.6
2018-05-02T13:14:34.466Z,17.7
2018-05-02T13:15:34.066Z,17.7
2018-05-02T13:16:33.279Z,17.9
2018-05-02T13:17:32.405Z,17.8
2018-05-02T13:18:32.034Z,17.8
2018-05-02T13:19:31.468Z,17.7
2018-05-02T13:20:30.803Z,17.3
2018-05-02T13:21:30.146Z,17.2
2018-05-02T13:23:29.174Z,16.9
2018-05-02T13:24:28.130Z,16.9
2018-05-02T13:25:27.572Z,17
2018-05-02T13:26:26.909Z,17
2018-05-02T13:27:26.034Z,16.9
2018-05-02T13:28:25.663Z,16.9
2018-05-02T13:29:24.890Z,16.7
2018-05-02T13:31:23.500Z,16.5
2018-05-02T13:32:23.118Z,16.6
2018-05-02T13:33:22.699Z,16.6
2018-05-02T13:34:21.922Z,16.6
2018-05-02T13:35:21.142Z,16.5
2018-05-02T13:36:20.867Z,16.5
2018-05-02T13:37:19.981Z,16.6
2018-05-02T13:38:19.313Z,16.6
2018-05-02T13:39:18.543Z,16.2
2018-05-02T13:40:17.767Z,16.1
2018-05-02T13:41:17.617Z,15.9
2018-05-02T13:42:16.736Z,15.8
2018-05-02T13:44:15.462Z,15.9
2018-05-02T13:45:14.789Z,16
2018-05-02T13:46:14.014Z,16.1
2018-05-02T13:47:13.350Z,15.9
2018-05-02T13:48:12.971Z,16
2018-05-02T13:50:11.776Z,16
2018-05-02T13:51:10.607Z,16
2018-05-02T13:54:08.727Z,16
2018-05-02T13:55:08.291Z,16.1
2018-05-02T13:56:07.525Z,15.9
2018-05-02T13:57:06.922Z,15.9
2018-05-02T13:59:05.606Z,15.7
2018-05-02T14:00:04.938Z,15.7
2018-05-02T14:01:04.391Z,15.6
2018-05-02T14:02:03.617Z,15.7
2018-05-02T14:03:02.951Z,15.6
2018-05-02T14:06:00.953Z,15.7
2018-05-02T14:07:00.188Z,15.8
2018-05-02T14:07:59.614Z,15.7
2018-05-02T14:08:58.858Z,15.7
2018-05-02T14:09:58.474Z,15.8
2018-05-02T14:10:57.820Z,15.8
2018-05-02T14:11:57.259Z,15.8
2018-05-02T14:12:56.502Z,15.8
2018-05-02T14:13:55.826Z,15.8
2018-05-02T14:14:55.149Z,15.8
2018-05-02T14:15:54.572Z,15.8
2018-05-02T14:16:53.545Z,15.7
2018-05-02T14:17:52.881Z,15.7
2018-05-02T14:18:52.234Z,15.6
2018-05-02T14:19:51.568Z,15.6
2018-05-02T14:20:50.687Z,15.5
2018-05-02T14:21:50.029Z,15.6
2018-05-02T14:23:48.890Z,15.7
2018-05-02T14:24:48.367Z,15.7
2018-05-02T14:25:47.572Z,15.8
2018-05-02T14:27:46.177Z,15.8
2018-05-02T14:28:45.615Z,15.7
2018-05-02T14:29:44.734Z,15.7
2018-05-02T14:30:43.955Z,15.7
2018-05-02T14:31:43.418Z,15.6
2018-05-02T14:33:42.132Z,15.6
2018-05-02T14:34:41.362Z,15.6
2018-05-02T14:35:40.594Z,15.7
2018-05-02T14:36:40.042Z,15.7
2018-05-02T14:37:39.264Z,15.7
2018-05-02T14:39:38.393Z,15.6
2018-05-02T14:40:37.506Z,15.6
2018-05-02T14:41:36.620Z,15.6
2018-05-02T14:42:36.030Z,15.6
2018-05-02T14:44:34.870Z,15.7
2018-05-02T14:45:33.833Z,15.7
2018-05-02T14:46:33.162Z,15.7
2018-05-02T14:47:32.392Z,15.7
2018-05-02T14:48:32.017Z,15.8
2018-05-02T14:49:31.243Z,15.8
2018-05-02T14:50:01.778Z,15.8
2018-05-02T14:50:32.230Z,15.7
2018-05-02T14:51:02.763Z,15.7
2018-05-02T14:51:33.301Z,15.8
2018-05-02T14:52:03.966Z,15.8
2018-05-02T14:53:28.591Z,15.8
2018-05-02T14:54:27.999Z,15.8
2018-05-02T14:55:27.313Z,15.8
2018-05-02T14:56:26.643Z,15.7
2018-05-02T14:57:25.876Z,15.6
2018-05-02T14:58:25.205Z,15.6
2018-05-02T14:59:24.645Z,15.6
2018-05-02T15:00:23.784Z,15.6
2018-05-02T15:04:21.170Z,15.4
2018-05-02T15:05:20.286Z,15.4
2018-05-02T15:06:19.722Z,15.4
2018-05-02T15:07:19.159Z,15.5
2018-05-02T15:08:18.702Z,15.5
2018-05-02T15:09:17.368Z,15.5
2018-05-02T15:10:16.601Z,15.5
2018-05-02T15:12:15.330Z,15.6
2018-05-02T15:13:14.666Z,15.6
2018-05-02T15:14:14.008Z,15.6
2018-05-02T15:15:13.375Z,15.6
2018-05-02T15:16:12.700Z,15.6
2018-05-02T15:17:12.045Z,15.6
2018-05-02T15:18:11.492Z,15.6
2018-05-02T15:20:10.108Z,15.6
2018-05-02T15:21:09.431Z,15.7
2018-05-02T15:21:40.080Z,15.7
2018-05-02T15:22:10.509Z,15.7
2018-05-02T15:23:07.836Z,15.7
2018-05-02T15:24:07.169Z,15.7
2018-05-02T15:25:06.292Z,15.8
2018-05-02T15:26:05.518Z,15.8
2018-05-02T15:27:04.970Z,15.8
2018-05-02T15:28:04.317Z,15.8
2018-05-02T15:29:03.656Z,15.9
2018-05-02T15:30:02.668Z,15.9
2018-05-02T15:31:02.189Z,15.9
2018-05-02T15:32:01.529Z,15.9
2018-05-02T15:32:31.936Z,15.9
2018-05-02T15:33:02.235Z,16
2018-05-02T15:33:32.988Z,16
2018-05-02T15:34:03.201Z,16
2018-05-02T15:34:33.469Z,16
2018-05-02T15:35:58.964Z,16.1
2018-05-02T15:36:58.194Z,16.1
2018-05-02T15:37:57.312Z,16.1
2018-05-02T15:38:56.642Z,16.1
2018-05-02T15:41:54.644Z,16.2
2018-05-02T15:42:53.999Z,16.3
2018-05-02T15:43:24.249Z,16.3
2018-05-02T15:43:54.896Z,16.4